sensor_id;sensor_type;location;lat;lon;timestamp;temperature;humidity
6988;DHT22;3534;49.960;8.018;2023-07-29T00:02:18;20.40;99.90
6988;DHT22;3534;49.960;8.018;2023-07-29T00:04:45;20.40;99.90
6988;DHT22;3534;49.960;8.018;2023-07-29T00:07:12;20.30;99.90
6988;DHT22;3534;49.960;8.018;2023-07-29T00:09:39;20.30;99.90
6988;DHT22;3534;49.960;8.018;2023-07-29T00:12:06;20.30;99.90
6988;DHT22;3534;49.960;8.018;2023-07-29T00:14:34;20.30;99.90
6988;DHT22;3534;49.960;8.018;2023-07-29T00:17:01;20.30;99.90
6988;DHT22;3534;49.960;8.018;2023-07-29T00:19:27;20.30;99.90
6988;DHT22;3534;49.960;8.018;2023-07-29T00:21:54;20.30;99.90
6988;DHT22;3534;49.960;8.018;2023-07-29T00:24:21;20.30;99.90
6988;DHT22;3534;49.960;8.018;2023-07-29T00:26:47;20.20;99.90
6988;DHT22;3534;49.960;8.018;2023-07-29T00:29:14;20.10;99.90
6988;DHT22;3534;49.960;8.018;2023-07-29T00:31:42;20.00;99.90
6988;DHT22;3534;49.960;8.018;2023-07-29T00:34:09;19.90;99.90
6988;DHT22;3534;49.960;8.018;2023-07-29T00:36:36;19.90;99.90
6988;DHT22;3534;49.960;8.018;2023-07-29T00:39:03;19.90;99.90
6988;DHT22;3534;49.960;8.018;2023-07-29T00:41:29;19.90;99.90
6988;DHT22;3534;49.960;8.018;2023-07-29T00:43:56;19.90;99.90
6988;DHT22;3534;49.960;8.018;2023-07-29T00:46:23;20.00;99.90
6988;DHT22;3534;49.960;8.018;2023-07-29T00:48:52;20.00;99.90
6988;DHT22;3534;49.960;8.018;2023-07-29T00:51:19;20.00;99.90
6988;DHT22;3534;49.960;8.018;2023-07-29T00:53:45;20.00;99.90
6988;DHT22;3534;49.960;8.018;2023-07-29T00:56:13;20.10;99.90
6988;DHT22;3534;49.960;8.018;2023-07-29T00:58:40;20.10;99.90
6988;DHT22;3534;49.960;8.018;2023-07-29T01:01:06;20.10;99.90
6988;DHT22;3534;49.960;8.018;2023-07-29T01:03:34;20.10;99.90
6988;DHT22;3534;49.960;8.018;2023-07-29T01:06:12;20.00;99.90
6988;DHT22;3534;49.960;8.018;2023-07-29T01:08:47;20.00;99.90
6988;DHT22;3534;49.960;8.018;2023-07-29T01:11:29;20.00;99.90
6988;DHT22;3534;49.960;8.018;2023-07-29T01:14:21;20.00;99.90
6988;DHT22;3534;49.960;8.018;2023-07-29T01:16:53;20.00;99.90
6988;DHT22;3534;49.960;8.018;2023-07-29T01:19:43;19.90;99.90
6988;DHT22;3534;49.960;8.018;2023-07-29T01:22:11;19.90;99.90
6988;DHT22;3534;49.960;8.018;2023-07-29T01:24:41;19.90;99.90
6988;DHT22;3534;49.960;8.018;2023-07-29T01:27:08;19.90;99.90
6988;DHT22;3534;49.960;8.018;2023-07-29T01:29:34;19.90;99.90
6988;DHT22;3534;49.960;8.018;2023-07-29T01:32:14;19.90;99.90
6988;DHT22;3534;49.960;8.018;2023-07-29T01:34:47;20.00;99.90
6988;DHT22;3534;49.960;8.018;2023-07-29T01:37:19;20.00;99.90
6988;DHT22;3534;49.960;8.018;2023-07-29T01:39:50;20.00;99.90
6988;DHT22;3534;49.960;8.018;2023-07-29T01:42:17;20.00;99.90
6988;DHT22;3534;49.960;8.018;2023-07-29T01:44:44;20.00;99.90
6988;DHT22;3534;49.960;8.018;2023-07-29T01:47:11;20.00;99.90
6988;DHT22;3534;49.960;8.018;2023-07-29T01:49:38;20.00;99.90
6988;DHT22;3534;49.960;8.018;2023-07-29T01:52:05;20.00;99.90
6988;DHT22;3534;49.960;8.018;2023-07-29T01:54:32;20.00;99.90
6988;DHT22;3534;49.960;8.018;2023-07-29T01:57:00;20.00;99.90
6988;DHT22;3534;49.960;8.018;2023-07-29T01:59:27;20.00;99.90
6988;DHT22;3534;49.960;8.018;2023-07-29T02:01:53;20.00;99.90
6988;DHT22;3534;49.960;8.018;2023-07-29T02:04:20;20.00;99.90
6988;DHT22;3534;49.960;8.018;2023-07-29T02:06:47;20.00;99.90
6988;DHT22;3534;49.960;8.018;2023-07-29T02:09:14;20.00;99.90
6988;DHT22;3534;49.960;8.018;2023-07-29T02:11:41;19.90;99.90
6988;DHT22;3534;49.960;8.018;2023-07-29T02:14:09;20.00;99.90
6988;DHT22;3534;49.960;8.018;2023-07-29T02:16:36;20.00;99.90
6988;DHT22;3534;49.960;8.018;2023-07-29T02:19:04;20.00;99.90
6988;DHT22;3534;49.960;8.018;2023-07-29T02:21:31;19.90;99.90
6988;DHT22;3534;49.960;8.018;2023-07-29T02:23:58;19.90;99.90
6988;DHT22;3534;49.960;8.018;2023-07-29T02:26:24;19.90;99.90
6988;DHT22;3534;49.960;8.018;2023-07-29T02:28:51;20.00;99.90
6988;DHT22;3534;49.960;8.018;2023-07-29T02:31:21;20.00;99.90
6988;DHT22;3534;49.960;8.018;2023-07-29T02:33:48;20.00;99.90
6988;DHT22;3534;49.960;8.018;2023-07-29T02:36:16;20.00;99.90
6988;DHT22;3534;49.960;8.018;2023-07-29T02:38:43;20.00;99.90
6988;DHT22;3534;49.960;8.018;2023-07-29T02:41:10;19.90;99.90
6988;DHT22;3534;49.960;8.018;2023-07-29T02:43:37;19.80;99.90
6988;DHT22;3534;49.960;8.018;2023-07-29T02:46:06;19.80;99.90
6988;DHT22;3534;49.960;8.018;2023-07-29T02:48:34;19.80;99.90
6988;DHT22;3534;49.960;8.018;2023-07-29T02:51:01;19.80;99.90
6988;DHT22;3534;49.960;8.018;2023-07-29T02:53:28;19.80;99.90
6988;DHT22;3534;49.960;8.018;2023-07-29T02:55:54;19.80;99.90
6988;DHT22;3534;49.960;8.018;2023-07-29T02:58:21;19.80;99.90
6988;DHT22;3534;49.960;8.018;2023-07-29T03:00:48;19.90;99.90
6988;DHT22;3534;49.960;8.018;2023-07-29T03:03:15;19.90;99.90
6988;DHT22;3534;49.960;8.018;2023-07-29T03:05:43;19.90;99.90
6988;DHT22;3534;49.960;8.018;2023-07-29T03:08:10;19.90;99.90
6988;DHT22;3534;49.960;8.018;2023-07-29T03:10:38;19.90;99.90
6988;DHT22;3534;49.960;8.018;2023-07-29T03:13:05;19.90;99.90
6988;DHT22;3534;49.960;8.018;2023-07-29T03:15:31;19.90;99.90
6988;DHT22;3534;49.960;8.018;2023-07-29T03:17:59;19.90;99.90
6988;DHT22;3534;49.960;8.018;2023-07-29T03:20:26;19.90;99.90
6988;DHT22;3534;49.960;8.018;2023-07-29T03:22:54;19.90;99.90
6988;DHT22;3534;49.960;8.018;2023-07-29T03:25:21;20.00;99.90
6988;DHT22;3534;49.960;8.018;2023-07-29T03:27:48;19.90;99.90
6988;DHT22;3534;49.960;8.018;2023-07-29T03:30:15;19.90;99.90
6988;DHT22;3534;49.960;8.018;2023-07-29T03:32:45;19.90;99.90
6988;DHT22;3534;49.960;8.018;2023-07-29T03:35:12;19.80;99.90
6988;DHT22;3534;49.960;8.018;2023-07-29T03:37:39;19.80;99.90
6988;DHT22;3534;49.960;8.018;2023-07-29T03:40:08;19.80;99.90
6988;DHT22;3534;49.960;8.018;2023-07-29T03:42:35;19.80;99.90
6988;DHT22;3534;49.960;8.018;2023-07-29T03:45:02;19.80;99.90
6988;DHT22;3534;49.960;8.018;2023-07-29T03:47:29;19.80;99.90
6988;DHT22;3534;49.960;8.018;2023-07-29T03:49:56;19.80;99.90
6988;DHT22;3534;49.960;8.018;2023-07-29T03:52:23;19.80;99.90
6988;DHT22;3534;49.960;8.018;2023-07-29T03:54:49;19.70;99.90
6988;DHT22;3534;49.960;8.018;2023-07-29T03:57:18;19.70;99.90
6988;DHT22;3534;49.960;8.018;2023-07-29T03:59:44;19.70;99.90
6988;DHT22;3534;49.960;8.018;2023-07-29T04:02:11;19.70;99.90
6988;DHT22;3534;49.960;8.018;2023-07-29T04:04:38;19.70;99.90
6988;DHT22;3534;49.960;8.018;2023-07-29T04:07:07;19.70;99.90
6988;DHT22;3534;49.960;8.018;2023-07-29T04:09:34;19.80;99.90
6988;DHT22;3534;49.960;8.018;2023-07-29T04:12:01;19.70;99.90
6988;DHT22;3534;49.960;8.018;2023-07-29T04:14:29;19.70;99.90
6988;DHT22;3534;49.960;8.018;2023-07-29T04:16:56;19.80;99.90
6988;DHT22;3534;49.960;8.018;2023-07-29T04:19:23;19.80;99.90
6988;DHT22;3534;49.960;8.018;2023-07-29T04:21:49;19.80;99.90
6988;DHT22;3534;49.960;8.018;2023-07-29T04:24:17;19.80;99.90
6988;DHT22;3534;49.960;8.018;2023-07-29T04:26:45;19.80;99.90
6988;DHT22;3534;49.960;8.018;2023-07-29T04:29:12;19.80;99.90
6988;DHT22;3534;49.960;8.018;2023-07-29T04:31:40;19.80;99.90
6988;DHT22;3534;49.960;8.018;2023-07-29T04:34:08;19.80;99.90
6988;DHT22;3534;49.960;8.018;2023-07-29T04:36:35;19.80;99.90
6988;DHT22;3534;49.960;8.018;2023-07-29T04:39:02;19.80;99.90
6988;DHT22;3534;49.960;8.018;2023-07-29T04:41:28;19.80;99.90
6988;DHT22;3534;49.960;8.018;2023-07-29T04:43:55;19.80;99.90
6988;DHT22;3534;49.960;8.018;2023-07-29T04:46:22;19.80;99.90
6988;DHT22;3534;49.960;8.018;2023-07-29T04:48:50;19.90;99.90
6988;DHT22;3534;49.960;8.018;2023-07-29T04:51:17;19.80;99.90
6988;DHT22;3534;49.960;8.018;2023-07-29T04:53:43;19.90;99.90
6988;DHT22;3534;49.960;8.018;2023-07-29T04:56:10;19.90;99.90
6988;DHT22;3534;49.960;8.018;2023-07-29T04:58:37;19.90;99.90
6988;DHT22;3534;49.960;8.018;2023-07-29T05:01:04;19.90;99.90
6988;DHT22;3534;49.960;8.018;2023-07-29T05:03:31;19.90;99.90
6988;DHT22;3534;49.960;8.018;2023-07-29T05:05:59;20.00;99.90
6988;DHT22;3534;49.960;8.018;2023-07-29T05:08:26;20.00;99.90
6988;DHT22;3534;49.960;8.018;2023-07-29T05:10:54;20.00;99.90
6988;DHT22;3534;49.960;8.018;2023-07-29T05:13:21;20.00;99.90
6988;DHT22;3534;49.960;8.018;2023-07-29T05:15:48;20.00;99.90
6988;DHT22;3534;49.960;8.018;2023-07-29T05:18:15;20.00;99.90
6988;DHT22;3534;49.960;8.018;2023-07-29T05:20:42;20.00;99.90
6988;DHT22;3534;49.960;8.018;2023-07-29T05:23:10;20.00;99.90
6988;DHT22;3534;49.960;8.018;2023-07-29T05:25:37;20.00;99.90
6988;DHT22;3534;49.960;8.018;2023-07-29T05:28:04;19.90;99.90
6988;DHT22;3534;49.960;8.018;2023-07-29T05:30:32;19.90;99.90
6988;DHT22;3534;49.960;8.018;2023-07-29T05:33:02;19.90;99.90
6988;DHT22;3534;49.960;8.018;2023-07-29T05:35:29;19.90;99.90
6988;DHT22;3534;49.960;8.018;2023-07-29T05:37:56;20.00;99.90
6988;DHT22;3534;49.960;8.018;2023-07-29T05:40:24;20.00;99.90
6988;DHT22;3534;49.960;8.018;2023-07-29T05:42:51;20.00;99.90
6988;DHT22;3534;49.960;8.018;2023-07-29T05:45:18;19.90;99.90
6988;DHT22;3534;49.960;8.018;2023-07-29T05:47:44;19.80;99.90
6988;DHT22;3534;49.960;8.018;2023-07-29T05:50:11;19.80;99.90
6988;DHT22;3534;49.960;8.018;2023-07-29T05:52:38;19.80;99.90
6988;DHT22;3534;49.960;8.018;2023-07-29T05:55:06;19.80;99.90
6988;DHT22;3534;49.960;8.018;2023-07-29T05:57:34;19.80;99.90
6988;DHT22;3534;49.960;8.018;2023-07-29T06:00:01;19.80;99.90
6988;DHT22;3534;49.960;8.018;2023-07-29T06:02:28;19.80;99.90
6988;DHT22;3534;49.960;8.018;2023-07-29T06:04:54;19.80;99.90
6988;DHT22;3534;49.960;8.018;2023-07-29T06:07:21;19.90;99.90
6988;DHT22;3534;49.960;8.018;2023-07-29T06:09:48;19.90;99.90
6988;DHT22;3534;49.960;8.018;2023-07-29T06:12:15;19.90;99.90
6988;DHT22;3534;49.960;8.018;2023-07-29T06:14:43;19.90;99.90
6988;DHT22;3534;49.960;8.018;2023-07-29T06:17:10;19.90;99.90
6988;DHT22;3534;49.960;8.018;2023-07-29T06:19:37;20.00;99.90
6988;DHT22;3534;49.960;8.018;2023-07-29T06:22:05;19.90;99.90
6988;DHT22;3534;49.960;8.018;2023-07-29T06:24:32;20.00;99.90
6988;DHT22;3534;49.960;8.018;2023-07-29T06:26:59;20.00;99.90
6988;DHT22;3534;49.960;8.018;2023-07-29T06:29:25;19.90;99.90
6988;DHT22;3534;49.960;8.018;2023-07-29T06:31:53;19.90;99.90
6988;DHT22;3534;49.960;8.018;2023-07-29T06:34:20;19.90;99.90
6988;DHT22;3534;49.960;8.018;2023-07-29T06:36:48;19.90;99.90
6988;DHT22;3534;49.960;8.018;2023-07-29T06:39:14;19.90;99.90
6988;DHT22;3534;49.960;8.018;2023-07-29T06:41:41;19.90;99.90
6988;DHT22;3534;49.960;8.018;2023-07-29T06:44:08;19.80;99.90
6988;DHT22;3534;49.960;8.018;2023-07-29T06:46:35;19.80;99.90
6988;DHT22;3534;49.960;8.018;2023-07-29T06:49:03;19.70;99.90
6988;DHT22;3534;49.960;8.018;2023-07-29T06:51:30;19.70;99.90
6988;DHT22;3534;49.960;8.018;2023-07-29T06:54:00;19.80;99.90
6988;DHT22;3534;49.960;8.018;2023-07-29T06:56:26;19.80;99.90
6988;DHT22;3534;49.960;8.018;2023-07-29T06:58:53;19.80;99.90
6988;DHT22;3534;49.960;8.018;2023-07-29T07:01:20;19.90;99.90
6988;DHT22;3534;49.960;8.018;2023-07-29T07:03:47;19.80;99.90
6988;DHT22;3534;49.960;8.018;2023-07-29T07:06:15;19.80;99.90
6988;DHT22;3534;49.960;8.018;2023-07-29T07:08:42;19.80;99.90
6988;DHT22;3534;49.960;8.018;2023-07-29T07:11:09;19.80;99.90
6988;DHT22;3534;49.960;8.018;2023-07-29T07:13:36;19.70;99.90
6988;DHT22;3534;49.960;8.018;2023-07-29T07:16:03;19.70;99.90
6988;DHT22;3534;49.960;8.018;2023-07-29T07:18:30;19.80;99.90
6988;DHT22;3534;49.960;8.018;2023-07-29T07:20:56;19.70;99.90
6988;DHT22;3534;49.960;8.018;2023-07-29T07:23:25;19.70;99.90
6988;DHT22;3534;49.960;8.018;2023-07-29T07:25:51;19.80;99.90
6988;DHT22;3534;49.960;8.018;2023-07-29T07:28:17;19.70;99.90
6988;DHT22;3534;49.960;8.018;2023-07-29T07:30:44;19.70;99.90
6988;DHT22;3534;49.960;8.018;2023-07-29T07:33:11;19.80;99.90
6988;DHT22;3534;49.960;8.018;2023-07-29T07:35:38;19.80;99.90
6988;DHT22;3534;49.960;8.018;2023-07-29T07:38:04;19.80;99.90
6988;DHT22;3534;49.960;8.018;2023-07-29T07:40:34;19.80;99.90
6988;DHT22;3534;49.960;8.018;2023-07-29T07:43:01;19.90;99.90
6988;DHT22;3534;49.960;8.018;2023-07-29T07:45:28;20.00;99.90
6988;DHT22;3534;49.960;8.018;2023-07-29T07:47:55;20.00;99.90
6988;DHT22;3534;49.960;8.018;2023-07-29T07:50:22;20.10;99.90
6988;DHT22;3534;49.960;8.018;2023-07-29T07:52:50;20.20;99.90
6988;DHT22;3534;49.960;8.018;2023-07-29T07:55:16;20.30;99.90
6988;DHT22;3534;49.960;8.018;2023-07-29T07:57:44;20.40;99.90
6988;DHT22;3534;49.960;8.018;2023-07-29T08:00:12;20.50;99.90
6988;DHT22;3534;49.960;8.018;2023-07-29T08:02:41;20.60;99.90
6988;DHT22;3534;49.960;8.018;2023-07-29T08:05:08;20.70;99.90
6988;DHT22;3534;49.960;8.018;2023-07-29T08:07:35;20.80;99.90
6988;DHT22;3534;49.960;8.018;2023-07-29T08:10:02;20.80;99.90
6988;DHT22;3534;49.960;8.018;2023-07-29T08:12:28;20.90;99.90
6988;DHT22;3534;49.960;8.018;2023-07-29T08:14:57;20.90;99.90
6988;DHT22;3534;49.960;8.018;2023-07-29T08:17:23;21.00;99.90
6988;DHT22;3534;49.960;8.018;2023-07-29T08:19:50;21.10;99.90
6988;DHT22;3534;49.960;8.018;2023-07-29T08:22:17;21.10;99.90
6988;DHT22;3534;49.960;8.018;2023-07-29T08:24:44;21.20;99.90
6988;DHT22;3534;49.960;8.018;2023-07-29T08:27:11;21.30;99.90
6988;DHT22;3534;49.960;8.018;2023-07-29T08:29:37;21.30;99.90
6988;DHT22;3534;49.960;8.018;2023-07-29T08:32:06;21.40;99.90
6988;DHT22;3534;49.960;8.018;2023-07-29T08:34:33;21.40;99.90
6988;DHT22;3534;49.960;8.018;2023-07-29T08:36:59;21.50;99.90
6988;DHT22;3534;49.960;8.018;2023-07-29T08:39:26;21.50;99.90
6988;DHT22;3534;49.960;8.018;2023-07-29T08:42:02;21.60;99.90
6988;DHT22;3534;49.960;8.018;2023-07-29T08:44:35;21.60;99.90
6988;DHT22;3534;49.960;8.018;2023-07-29T08:47:02;21.60;99.90
6988;DHT22;3534;49.960;8.018;2023-07-29T08:49:31;21.70;99.90
6988;DHT22;3534;49.960;8.018;2023-07-29T08:51:59;21.70;99.90
6988;DHT22;3534;49.960;8.018;2023-07-29T08:54:27;21.70;99.90
6988;DHT22;3534;49.960;8.018;2023-07-29T08:56:54;21.80;99.90
6988;DHT22;3534;49.960;8.018;2023-07-29T08:59:21;21.80;99.90
6988;DHT22;3534;49.960;8.018;2023-07-29T09:01:49;21.80;99.90
6988;DHT22;3534;49.960;8.018;2023-07-29T09:04:16;21.90;99.90
6988;DHT22;3534;49.960;8.018;2023-07-29T09:06:46;21.90;99.90
6988;DHT22;3534;49.960;8.018;2023-07-29T09:09:13;21.90;99.90
6988;DHT22;3534;49.960;8.018;2023-07-29T09:11:40;22.00;99.90
6988;DHT22;3534;49.960;8.018;2023-07-29T09:14:07;22.10;99.90
6988;DHT22;3534;49.960;8.018;2023-07-29T09:16:34;22.10;99.90
6988;DHT22;3534;49.960;8.018;2023-07-29T09:19:02;22.20;99.90
6988;DHT22;3534;49.960;8.018;2023-07-29T09:21:29;22.20;99.90
6988;DHT22;3534;49.960;8.018;2023-07-29T09:24:02;22.20;99.90
6988;DHT22;3534;49.960;8.018;2023-07-29T09:26:29;22.20;99.90
6988;DHT22;3534;49.960;8.018;2023-07-29T09:28:58;22.20;99.90
6988;DHT22;3534;49.960;8.018;2023-07-29T09:31:27;22.20;99.90
6988;DHT22;3534;49.960;8.018;2023-07-29T09:33:56;22.20;99.90
6988;DHT22;3534;49.960;8.018;2023-07-29T09:36:24;22.30;99.90
6988;DHT22;3534;49.960;8.018;2023-07-29T09:38:52;22.30;99.90
6988;DHT22;3534;49.960;8.018;2023-07-29T09:41:22;22.30;99.90
6988;DHT22;3534;49.960;8.018;2023-07-29T09:43:55;22.40;99.90
6988;DHT22;3534;49.960;8.018;2023-07-29T09:46:23;22.50;99.90
6988;DHT22;3534;49.960;8.018;2023-07-29T09:48:53;22.60;99.90
6988;DHT22;3534;49.960;8.018;2023-07-29T09:51:21;22.70;99.90
6988;DHT22;3534;49.960;8.018;2023-07-29T09:53:50;22.80;99.90
6988;DHT22;3534;49.960;8.018;2023-07-29T09:56:17;22.80;99.90
6988;DHT22;3534;49.960;8.018;2023-07-29T09:58:45;23.00;99.90
6988;DHT22;3534;49.960;8.018;2023-07-29T10:01:13;23.00;99.90
6988;DHT22;3534;49.960;8.018;2023-07-29T10:03:40;23.10;99.90
6988;DHT22;3534;49.960;8.018;2023-07-29T10:06:07;23.20;99.90
6988;DHT22;3534;49.960;8.018;2023-07-29T10:08:34;23.20;99.90
6988;DHT22;3534;49.960;8.018;2023-07-29T10:11:05;23.20;99.90
6988;DHT22;3534;49.960;8.018;2023-07-29T10:13:33;23.20;99.90
6988;DHT22;3534;49.960;8.018;2023-07-29T10:16:02;23.30;99.90
6988;DHT22;3534;49.960;8.018;2023-07-29T10:18:30;23.30;99.90
6988;DHT22;3534;49.960;8.018;2023-07-29T10:20:58;23.20;99.90
6988;DHT22;3534;49.960;8.018;2023-07-29T10:23:26;23.20;99.90
6988;DHT22;3534;49.960;8.018;2023-07-29T10:25:59;23.20;99.90
6988;DHT22;3534;49.960;8.018;2023-07-29T10:28:29;23.20;99.90
6988;DHT22;3534;49.960;8.018;2023-07-29T10:30:57;23.20;99.90
6988;DHT22;3534;49.960;8.018;2023-07-29T10:33:25;23.30;99.90
6988;DHT22;3534;49.960;8.018;2023-07-29T10:35:53;23.30;99.90
6988;DHT22;3534;49.960;8.018;2023-07-29T10:38:22;23.30;99.90
6988;DHT22;3534;49.960;8.018;2023-07-29T10:40:51;23.40;99.90
6988;DHT22;3534;49.960;8.018;2023-07-29T10:43:24;23.50;99.90
6988;DHT22;3534;49.960;8.018;2023-07-29T10:45:51;23.60;99.90
6988;DHT22;3534;49.960;8.018;2023-07-29T10:48:40;23.60;99.90
6988;DHT22;3534;49.960;8.018;2023-07-29T10:51:27;23.70;99.90
6988;DHT22;3534;49.960;8.018;2023-07-29T10:53:58;23.90;99.90
6988;DHT22;3534;49.960;8.018;2023-07-29T10:56:30;24.00;99.90
6988;DHT22;3534;49.960;8.018;2023-07-29T10:58:58;24.00;99.90
6988;DHT22;3534;49.960;8.018;2023-07-29T11:01:29;24.10;99.90
6988;DHT22;3534;49.960;8.018;2023-07-29T11:07:20;24.20;99.90
6988;DHT22;3534;49.960;8.018;2023-07-29T11:10:00;24.20;99.90
6988;DHT22;3534;49.960;8.018;2023-07-29T11:12:41;24.30;99.90
6988;DHT22;3534;49.960;8.018;2023-07-29T11:15:16;24.30;99.90
6988;DHT22;3534;49.960;8.018;2023-07-29T11:17:45;24.40;99.90
6988;DHT22;3534;49.960;8.018;2023-07-29T11:20:14;24.40;99.90
6988;DHT22;3534;49.960;8.018;2023-07-29T11:22:41;24.40;99.90
6988;DHT22;3534;49.960;8.018;2023-07-29T11:25:09;24.40;99.90
6988;DHT22;3534;49.960;8.018;2023-07-29T11:27:36;24.40;99.90
6988;DHT22;3534;49.960;8.018;2023-07-29T11:30:06;24.30;99.90
6988;DHT22;3534;49.960;8.018;2023-07-29T11:32:34;24.30;99.90
6988;DHT22;3534;49.960;8.018;2023-07-29T11:35:02;24.30;99.90
6988;DHT22;3534;49.960;8.018;2023-07-29T11:37:32;24.30;99.90
6988;DHT22;3534;49.960;8.018;2023-07-29T11:39:59;24.30;99.90
6988;DHT22;3534;49.960;8.018;2023-07-29T11:42:26;24.30;99.90
6988;DHT22;3534;49.960;8.018;2023-07-29T11:44:53;24.40;99.90
6988;DHT22;3534;49.960;8.018;2023-07-29T11:47:22;24.40;99.90
6988;DHT22;3534;49.960;8.018;2023-07-29T11:49:49;24.50;99.90
6988;DHT22;3534;49.960;8.018;2023-07-29T11:52:16;24.60;99.90
6988;DHT22;3534;49.960;8.018;2023-07-29T11:54:48;24.60;99.90
6988;DHT22;3534;49.960;8.018;2023-07-29T11:57:16;24.70;99.90
6988;DHT22;3534;49.960;8.018;2023-07-29T11:59:44;24.80;99.90
6988;DHT22;3534;49.960;8.018;2023-07-29T12:02:12;24.90;99.90
6988;DHT22;3534;49.960;8.018;2023-07-29T12:04:40;24.90;99.90
6988;DHT22;3534;49.960;8.018;2023-07-29T12:07:08;25.10;99.90
6988;DHT22;3534;49.960;8.018;2023-07-29T12:09:35;25.10;99.90
6988;DHT22;3534;49.960;8.018;2023-07-29T12:12:04;25.30;99.90
6988;DHT22;3534;49.960;8.018;2023-07-29T12:14:32;25.30;99.90
6988;DHT22;3534;49.960;8.018;2023-07-29T12:17:00;25.40;99.90
6988;DHT22;3534;49.960;8.018;2023-07-29T12:19:32;25.40;99.90
6988;DHT22;3534;49.960;8.018;2023-07-29T12:21:59;25.50;99.90
6988;DHT22;3534;49.960;8.018;2023-07-29T12:24:26;25.60;99.90
6988;DHT22;3534;49.960;8.018;2023-07-29T12:26:53;25.70;99.90
6988;DHT22;3534;49.960;8.018;2023-07-29T12:29:21;25.80;99.90
6988;DHT22;3534;49.960;8.018;2023-07-29T12:31:49;25.90;99.90
6988;DHT22;3534;49.960;8.018;2023-07-29T12:34:19;26.00;99.90
6988;DHT22;3534;49.960;8.018;2023-07-29T12:36:47;26.10;99.90
6988;DHT22;3534;49.960;8.018;2023-07-29T12:39:18;26.10;99.90
6988;DHT22;3534;49.960;8.018;2023-07-29T12:41:45;26.20;99.90
6988;DHT22;3534;49.960;8.018;2023-07-29T12:44:12;26.30;99.90
6988;DHT22;3534;49.960;8.018;2023-07-29T12:46:41;26.30;99.90
6988;DHT22;3534;49.960;8.018;2023-07-29T12:49:07;26.40;99.90
6988;DHT22;3534;49.960;8.018;2023-07-29T12:51:35;26.70;99.90
6988;DHT22;3534;49.960;8.018;2023-07-29T12:54:02;26.90;99.90
6988;DHT22;3534;49.960;8.018;2023-07-29T12:56:29;27.00;99.90
6988;DHT22;3534;49.960;8.018;2023-07-29T12:58:56;27.10;99.90
6988;DHT22;3534;49.960;8.018;2023-07-29T13:01:24;27.10;99.90
6988;DHT22;3534;49.960;8.018;2023-07-29T13:03:52;27.10;99.90
6988;DHT22;3534;49.960;8.018;2023-07-29T13:06:19;27.10;99.90
6988;DHT22;3534;49.960;8.018;2023-07-29T13:08:46;27.20;99.90
6988;DHT22;3534;49.960;8.018;2023-07-29T13:11:13;27.60;99.90
6988;DHT22;3534;49.960;8.018;2023-07-29T13:13:40;28.00;99.90
6988;DHT22;3534;49.960;8.018;2023-07-29T13:16:07;28.50;99.90
6988;DHT22;3534;49.960;8.018;2023-07-29T13:18:34;28.90;99.90
6988;DHT22;3534;49.960;8.018;2023-07-29T13:21:02;29.30;99.90
6988;DHT22;3534;49.960;8.018;2023-07-29T13:23:29;29.70;99.90
6988;DHT22;3534;49.960;8.018;2023-07-29T13:25:56;29.80;99.90
6988;DHT22;3534;49.960;8.018;2023-07-29T13:28:23;30.20;99.90
6988;DHT22;3534;49.960;8.018;2023-07-29T13:30:49;30.60;99.90
6988;DHT22;3534;49.960;8.018;2023-07-29T13:33:16;30.90;99.90
6988;DHT22;3534;49.960;8.018;2023-07-29T13:35:43;31.10;99.90
6988;DHT22;3534;49.960;8.018;2023-07-29T13:38:11;31.00;99.90
6988;DHT22;3534;49.960;8.018;2023-07-29T13:40:38;30.60;99.90
6988;DHT22;3534;49.960;8.018;2023-07-29T13:43:05;30.20;99.90
6988;DHT22;3534;49.960;8.018;2023-07-29T13:45:33;30.00;99.90
6988;DHT22;3534;49.960;8.018;2023-07-29T13:48:00;29.80;99.90
6988;DHT22;3534;49.960;8.018;2023-07-29T13:50:26;29.50;99.90
6988;DHT22;3534;49.960;8.018;2023-07-29T13:52:53;29.40;99.90
6988;DHT22;3534;49.960;8.018;2023-07-29T13:55:21;29.70;99.90
6988;DHT22;3534;49.960;8.018;2023-07-29T13:57:48;29.80;99.90
6988;DHT22;3534;49.960;8.018;2023-07-29T14:00:15;29.80;99.90
6988;DHT22;3534;49.960;8.018;2023-07-29T14:02:42;29.50;99.90
6988;DHT22;3534;49.960;8.018;2023-07-29T14:05:09;29.30;99.90
6988;DHT22;3534;49.960;8.018;2023-07-29T14:07:37;29.50;99.90
6988;DHT22;3534;49.960;8.018;2023-07-29T14:10:04;29.90;99.90
6988;DHT22;3534;49.960;8.018;2023-07-29T14:12:33;30.30;99.90
6988;DHT22;3534;49.960;8.018;2023-07-29T14:15:00;30.90;99.90
6988;DHT22;3534;49.960;8.018;2023-07-29T14:17:26;31.40;99.90
6988;DHT22;3534;49.960;8.018;2023-07-29T14:19:53;31.70;99.90
6988;DHT22;3534;49.960;8.018;2023-07-29T14:22:20;31.70;99.90
6988;DHT22;3534;49.960;8.018;2023-07-29T14:24:47;31.40;99.90
6988;DHT22;3534;49.960;8.018;2023-07-29T14:27:13;30.90;99.90
6988;DHT22;3534;49.960;8.018;2023-07-29T14:29:43;30.80;99.90
6988;DHT22;3534;49.960;8.018;2023-07-29T14:32:10;31.00;99.90
6988;DHT22;3534;49.960;8.018;2023-07-29T14:34:36;31.40;99.90
6988;DHT22;3534;49.960;8.018;2023-07-29T14:37:04;31.60;99.90
6988;DHT22;3534;49.960;8.018;2023-07-29T14:39:31;31.70;99.90
6988;DHT22;3534;49.960;8.018;2023-07-29T14:41:58;31.50;99.90
6988;DHT22;3534;49.960;8.018;2023-07-29T14:44:25;31.50;99.90
6988;DHT22;3534;49.960;8.018;2023-07-29T14:46:53;31.30;99.90
6988;DHT22;3534;49.960;8.018;2023-07-29T14:49:20;31.10;99.90
6988;DHT22;3534;49.960;8.018;2023-07-29T14:51:47;31.20;99.80
6988;DHT22;3534;49.960;8.018;2023-07-29T14:54:14;31.40;99.90
6988;DHT22;3534;49.960;8.018;2023-07-29T14:56:41;31.80;99.90
6988;DHT22;3534;49.960;8.018;2023-07-29T14:59:07;31.90;99.70
6988;DHT22;3534;49.960;8.018;2023-07-29T15:01:34;32.10;99.20
6988;DHT22;3534;49.960;8.018;2023-07-29T15:04:03;32.00;98.30
6988;DHT22;3534;49.960;8.018;2023-07-29T15:06:30;31.90;98.10
6988;DHT22;3534;49.960;8.018;2023-07-29T15:08:56;31.90;97.50
6988;DHT22;3534;49.960;8.018;2023-07-29T15:11:23;32.00;98.00
6988;DHT22;3534;49.960;8.018;2023-07-29T15:13:50;32.10;98.40
6988;DHT22;3534;49.960;8.018;2023-07-29T15:16:17;32.20;98.40
6988;DHT22;3534;49.960;8.018;2023-07-29T15:18:44;32.30;98.10
6988;DHT22;3534;49.960;8.018;2023-07-29T15:21:12;32.30;97.60
6988;DHT22;3534;49.960;8.018;2023-07-29T15:23:39;32.10;98.30
6988;DHT22;3534;49.960;8.018;2023-07-29T15:26:06;32.10;97.70
6988;DHT22;3534;49.960;8.018;2023-07-29T15:28:32;32.30;97.10
6988;DHT22;3534;49.960;8.018;2023-07-29T15:30:59;32.50;96.70
6988;DHT22;3534;49.960;8.018;2023-07-29T15:33:26;32.40;96.40
6988;DHT22;3534;49.960;8.018;2023-07-29T15:35:53;32.30;96.30
6988;DHT22;3534;49.960;8.018;2023-07-29T15:38:21;32.10;96.50
6988;DHT22;3534;49.960;8.018;2023-07-29T15:40:48;31.60;95.90
6988;DHT22;3534;49.960;8.018;2023-07-29T15:43:16;31.30;97.20
6988;DHT22;3534;49.960;8.018;2023-07-29T15:45:43;31.20;97.30
6988;DHT22;3534;49.960;8.018;2023-07-29T15:48:11;30.90;97.10
6988;DHT22;3534;49.960;8.018;2023-07-29T15:50:38;30.70;97.20
6988;DHT22;3534;49.960;8.018;2023-07-29T15:53:06;30.40;98.00
6988;DHT22;3534;49.960;8.018;2023-07-29T15:55:34;30.50;98.10
6988;DHT22;3534;49.960;8.018;2023-07-29T15:58:01;30.70;97.50
6988;DHT22;3534;49.960;8.018;2023-07-29T16:00:27;30.90;97.80
6988;DHT22;3534;49.960;8.018;2023-07-29T16:02:54;31.10;97.70
6988;DHT22;3534;49.960;8.018;2023-07-29T16:05:21;31.30;97.00
6988;DHT22;3534;49.960;8.018;2023-07-29T16:07:48;31.60;97.20
6988;DHT22;3534;49.960;8.018;2023-07-29T16:10:15;31.90;96.70